^^
Saratoga-Weather Station Historical Data
Daily Summary for May 10, 2021 Units:  English    Metric   Both
Daily Weekly Monthly Yearly Custom
  High: Low: Average:
Temperature: 68.7 °F 58.5 °F 62.8 °F
Dew Point: 55 °F 50.7 °F 53.4 °F
Humidity: 87% 53% 72%
Wind Speed: 6.9mph 0mph 1.6mph
Wind Gust: 15mph - -
Wind- - South
Pressure: 29.7 in 29.6 in -
Precipitation: 0.02 in    
Historical Graphs
 
 
Tabular Data for May 10, 2021
Time Temperature Dew Point Pressure Wind Wind Speed Wind Gust Humidity Rainfall Rate (Hourly) solar
00:04 64.6 °F 52.5 °F 29.6 in South 0.9 mph 2 mph 65% 0 in 0 W/m2
00:09 64.2 °F 52.2 °F 29.6 in ESE 0.9 mph 3 mph 65% 0 in 0 W/m2
00:14 64.2 °F 51.8 °F 29.6 in ENE 2.9 mph 3 mph 64% 0 in 0 W/m2
00:19 64.4 °F 52 °F 29.6 in ENE 0.9 mph 1 mph 64% 0 in 0 W/m2
00:24 64.6 °F 51.6 °F 29.6 in ENE 4.9 mph 8 mph 63% 0 in 0 W/m2
00:29 65.5 °F 50.7 °F 29.6 in North 0.9 mph 9 mph 59% 0 in 0 W/m2
00:34 66.9 °F 51.3 °F 29.6 in NE 2 mph 4 mph 57% 0 in 0 W/m2
00:39 67.6 °F 51.8 °F 29.6 in NE 0.9 mph 5 mph 57% 0 in 0 W/m2
00:44 67.8 °F 52.5 °F 29.6 in SE 0.9 mph 4 mph 58% 0 in 0 W/m2
00:49 67.6 °F 52.3 °F 29.6 in Calm   1 mph 58% 0 in 0 W/m2
00:54 67.3 °F 53.8 °F 29.6 in Calm   1 mph 62% 0 in 0 W/m2
00:59 66.6 °F 53.6 °F 29.6 in Calm   2 mph 63% 0 in 0 W/m2
01:04 65.8 °F 52 °F 29.6 in Calm   2 mph 61% 0 in 0 W/m2
01:09 65.7 °F 53.2 °F 29.6 in WSW 0.9 mph 2 mph 64% 0 in 0 W/m2
01:14 65.3 °F 52.9 °F 29.6 in ESE 0.9 mph 3 mph 64% 0 in 0 W/m2
01:19 65.1 °F 52.7 °F 29.6 in ESE 0.9 mph 1 mph 64% 0 in 0 W/m2
01:24 65.1 °F 52.7 °F 29.6 in ESE 0.9 mph 1 mph 64% 0 in 0 W/m2
01:29 64.9 °F 52.5 °F 29.6 in Calm     64% 0 in 0 W/m2
01:34 64.8 °F 52.7 °F 29.6 in ESE 0.9 mph 2 mph 65% 0 in 0 W/m2
01:39 64.6 °F 53.4 °F 29.6 in Calm   2 mph 67% 0 in 0 W/m2
01:44 64 °F 52.9 °F 29.6 in Calm   1 mph 67% 0 in 0 W/m2
01:49 63.9 °F 52.7 °F 29.6 in East 2.9 mph 4 mph 67% 0 in 0 W/m2
01:54 64 °F 52.9 °F 29.6 in Calm   1 mph 67% 0 in 0 W/m2
01:59 64 °F 52.5 °F 29.6 in East 0.9 mph 4 mph 66% 0 in 0 W/m2
02:04 64.2 °F 53.1 °F 29.6 in East 0.9 mph 1 mph 67% 0 in 0 W/m2
02:09 64 °F 53.6 °F 29.6 in East 0.9 mph 4 mph 69% 0 in 0 W/m2
02:14 63.9 °F 54.3 °F 29.6 in Calm     71% 0 in 0 W/m2
02:19 63.3 °F 54.5 °F 29.6 in Calm   3 mph 73% 0 in 0 W/m2
02:24 62.8 °F 54.7 °F 29.6 in SSW 0.9 mph 4 mph 75% 0 in 0 W/m2
02:29 63.1 °F 54.3 °F 29.6 in North 2.9 mph 4 mph 73% 0 in 0 W/m2
02:34 64.2 °F 53.4 °F 29.6 in NNW 0.9 mph 4 mph 68% 0 in 0 W/m2
02:39 65.1 °F 53.4 °F 29.6 in West 2 mph 4 mph 66% 0 in 0 W/m2
02:44 65.3 °F 54.5 °F 29.6 in Calm   2 mph 68% 0 in 0 W/m2
02:49 64.9 °F 54.1 °F 29.6 in NNW 2.9 mph 3 mph 68% 0 in 0 W/m2
02:54 64.9 °F 52.9 °F 29.6 in SE 0.9 mph 5 mph 65% 0 in 0 W/m2
02:59 65.7 °F 52.3 °F 29.6 in North 0.9 mph 8 mph 62% 0 in 0 W/m2
03:04 66.4 °F 52.5 °F 29.6 in ENE 2 mph 3 mph 61% 0 in 0 W/m2
03:09 66.9 °F 52.2 °F 29.6 in NE 2.9 mph 4 mph 59% 0 in 0 W/m2
03:14 67.5 °F 51.6 °F 29.6 in NNW 2 mph 4 mph 57% 0 in 0 W/m2
03:19 67.8 °F 51.6 °F 29.6 in NE 0.9 mph 5 mph 56% 0 in 0 W/m2
03:24 68.2 °F 51.4 °F 29.6 in NW 0.9 mph 8 mph 55% 0 in 0 W/m2
03:29 68.5 °F 51.8 °F 29.6 in NW 2 mph 5 mph 55% 0 in 0 W/m2
03:34 68.5 °F 51.3 °F 29.6 in NE 0.9 mph 2 mph 54% 0 in 0 W/m2
03:39 68.7 °F 51.4 °F 29.6 in NNW 2.9 mph 7 mph 54% 0 in 0 W/m2
03:45 68.7 °F 51.4 °F 29.6 in North 2 mph 4 mph 54% 0 in 0 W/m2
03:50 68.7 °F 50.9 °F 29.6 in NNW 4 mph 5 mph 53% 0 in 0 W/m2
03:55 68.7 °F 50.9 °F 29.6 in NNW 4.9 mph 8 mph 53% 0 in 0 W/m2
04:00 68.7 °F 50.9 °F 29.6 in SW 2 mph 5 mph 53% 0 in 0 W/m2
04:05 68.7 °F 51.4 °F 29.6 in NNW 0.9 mph 3 mph 54% 0 in 0 W/m2
04:10 68.5 °F 51.3 °F 29.6 in WNW 2.9 mph 6 mph 54% 0 in 0 W/m2
04:15 68.4 °F 51.6 °F 29.6 in North 2.9 mph 9 mph 55% 0 in 0 W/m2
04:20 68.2 °F 51.8 °F 29.6 in ENE 2.9 mph 5 mph 56% 0 in 0 W/m2
04:25 67.8 °F 51.6 °F 29.6 in NNW 0.9 mph 9 mph 56% 0 in 0 W/m2
04:30 67.6 °F 51.8 °F 29.6 in West 2.9 mph 6 mph 57% 0 in 0 W/m2
04:35 67.5 °F 51.6 °F 29.6 in North 0.9 mph 3 mph 57% 0 in 0 W/m2
04:40 67.1 °F 52.3 °F 29.6 in NNE 2 mph 5 mph 59% 0 in 0 W/m2
04:45 66.9 °F 52.5 °F 29.6 in NNW 4 mph 4 mph 60% 0 in 0 W/m2
04:50 66.4 °F 52.5 °F 29.6 in Calm   6 mph 61% 0 in 0 W/m2
04:55 66 °F 52.7 °F 29.6 in West 0.9 mph 4 mph 62% 0 in 0 W/m2
05:00 65.8 °F 52.9 °F 29.6 in Calm   6 mph 63% 0 in 0 W/m2
05:05 65.7 °F 53.6 °F 29.6 in NW 2.9 mph 4 mph 65% 0 in 0 W/m2
05:10 65.1 °F 54 °F 29.6 in NW 2.9 mph 6 mph 67% 0 in 0 W/m2
05:15 64.6 °F 53.8 °F 29.6 in WNW 6.9 mph 15 mph 68% 0 in 0 W/m2
05:20 63.3 °F 54.1 °F 29.6 in NW 4 mph 12 mph 72% 0.01 in 0 W/m2
05:25 62.8 °F 54.3 °F 29.6 in NNW 2 mph 4 mph 74% 0.01 in 0 W/m2
05:30 62.1 °F 54.3 °F 29.6 in Calm   12 mph 76% 0.01 in 0 W/m2
05:35 61.7 °F 54.5 °F 29.6 in NNW 2 mph 2 mph 77% 0.01 in 0 W/m2
05:40 61.3 °F 54.5 °F 29.6 in Calm   5 mph 78% 0.01 in 0 W/m2
05:45 61.2 °F 54.3 °F 29.6 in NNE 2 mph 4 mph 78% 0.01 in 0 W/m2
05:50 61.2 °F 54.3 °F 29.6 in ENE 2.9 mph 4 mph 78% 0.01 in 0 W/m2
05:55 61.2 °F 54.7 °F 29.6 in ENE 2 mph 4 mph 79% 0.01 in 0 W/m2
06:00 61 °F 54.5 °F 29.6 in NNE 0.9 mph 3 mph 79% 0.01 in 0 W/m2
06:05 60.8 °F 54.3 °F 29.6 in Calm   1 mph 79% 0.01 in 0 W/m2
06:10 60.8 °F 54.3 °F 29.6 in Calm   3 mph 79% 0.01 in 0 W/m2
06:15 60.6 °F 54.1 °F 29.6 in South 2 mph 3 mph 79% 0.01 in 0 W/m2
06:20 60.6 °F 54.1 °F 29.6 in SE 2.9 mph 3 mph 79% 0 in 0 W/m2
06:25 60.6 °F 54.1 °F 29.6 in North 2 mph 2 mph 79% 0 in 5 W/m2
06:30 60.4 °F 54.3 °F 29.6 in North 0.9 mph 2 mph 80% 0 in 0 W/m2
06:35 60.4 °F 54.5 °F 29.6 in ENE 0.9 mph 3 mph 81% 0 in 0 W/m2
06:40 60.3 °F 54.1 °F 29.6 in Calm   2 mph 80% 0 in 5 W/m2
06:45 60.3 °F 54.3 °F 29.6 in ENE 2.9 mph 4 mph 81% 0 in 5 W/m2
06:50 60.3 °F 54.3 °F 29.6 in East 0.9 mph 1 mph 81% 0 in 9 W/m2
06:55 60.1 °F 54.3 °F 29.6 in East 4 mph 4 mph 81% 0 in 9 W/m2
07:00 60.1 °F 54.3 °F 29.6 in ENE 0.9 mph 5 mph 81% 0 in 11 W/m2
07:05 60.1 °F 54.3 °F 29.6 in Calm   3 mph 81% 0 in 21 W/m2
07:10 60.1 °F 54.3 °F 29.6 in NE 0.9 mph 1 mph 81% 0 in 37 W/m2
07:15 60.1 °F 54.5 °F 29.6 in Calm   1 mph 82% 0 in 51 W/m2
07:20 60.1 °F 54.5 °F 29.6 in Calm   1 mph 82% 0 in 53 W/m2
07:25 60.1 °F 54.3 °F 29.7 in Calm   1 mph 81% 0 in 47 W/m2
07:30 60.1 °F 54.5 °F 29.6 in NNW 0.9 mph 2 mph 82% 0 in 69 W/m2
07:35 60.3 °F 54.3 °F 29.6 in Calm   2 mph 81% 0 in 95 W/m2
07:40 60.3 °F 54.3 °F 29.7 in Calm   1 mph 81% 0 in 72 W/m2
07:45 60.4 °F 54.3 °F 29.7 in Calm   2 mph 80% 0 in 83 W/m2
07:50 60.4 °F 54.3 °F 29.7 in Calm   2 mph 80% 0 in 70 W/m2
07:55 60.6 °F 54.5 °F 29.7 in NNE 2 mph 3 mph 80% 0 in 60 W/m2
08:01 60.6 °F 54.1 °F 29.6 in WNW 0.9 mph 3 mph 79% 0 in 86 W/m2
08:06 60.8 °F 54 °F 29.7 in East 2.9 mph 3 mph 78% 0 in 49 W/m2
08:11 60.8 °F 54 °F 29.7 in Calm   2 mph 78% 0 in 49 W/m2
08:16 60.8 °F 54 °F 29.7 in Calm   3 mph 78% 0 in 46 W/m2
08:21 60.6 °F 54.1 °F 29.7 in NNW 2.9 mph 6 mph 79% 0 in 67 W/m2
08:26 60.6 °F 54.1 °F 29.7 in NE 2 mph 3 mph 79% 0 in 91 W/m2
08:31 60.6 °F 54.1 °F 29.7 in NNE 2 mph 6 mph 79% 0 in 90 W/m2
08:36 60.6 °F 53.8 °F 29.7 in NE 2 mph 4 mph 78% 0 in 67 W/m2
08:41 60.6 °F 54.1 °F 29.7 in NNW 0.9 mph 5 mph 79% 0 in 118 W/m2
08:46 60.6 °F 54.1 °F 29.7 in NW 0.9 mph 3 mph 79% 0 in 111 W/m2
08:51 60.6 °F 53.8 °F 29.7 in West 2 mph 8 mph 78% 0 in 102 W/m2
08:56 60.6 °F 53.8 °F 29.7 in NE 0.9 mph 6 mph 78% 0 in 171 W/m2
09:01 60.6 °F 53.8 °F 29.7 in Calm   4 mph 78% 0 in 149 W/m2
09:06 60.6 °F 53.8 °F 29.7 in NW 4.9 mph 10 mph 78% 0 in 67 W/m2
09:11 60.4 °F 53.2 °F 29.7 in WNW 4.9 mph 6 mph 77% 0 in 79 W/m2
09:16 60.4 °F 53.6 °F 29.7 in WNW 4.9 mph 8 mph 78% 0 in 79 W/m2
09:21 60.3 °F 53.8 °F 29.7 in NNW 2.9 mph 3 mph 79% 0 in 142 W/m2
09:26 60.1 °F 54 °F 29.7 in NNE 0.9 mph 3 mph 80% 0 in 181 W/m2
09:31 59.9 °F 54.1 °F 29.7 in NE 0.9 mph 8 mph 81% 0 in 137 W/m2
09:36 59.7 °F 54.1 °F 29.7 in North 0.9 mph 3 mph 82% 0.01 in 121 W/m2
09:41 59.4 °F 54.1 °F 29.7 in Calm   4 mph 83% 0.01 in 63 W/m2
09:46 59.2 °F 54.3 °F 29.7 in NW 2.9 mph 5 mph 84% 0.01 in 49 W/m2
09:51 59 °F 54.5 °F 29.7 in Calm   4 mph 85% 0.01 in 72 W/m2
09:56 58.8 °F 54.3 °F 29.7 in NW 0.9 mph 5 mph 85% 0.01 in 107 W/m2
10:01 58.8 °F 54.7 °F 29.7 in NW 2.9 mph 3 mph 86% 0.01 in 102 W/m2
10:06 58.6 °F 54.5 °F 29.7 in NW 0.9 mph 3 mph 86% 0.01 in 90 W/m2
10:11 58.6 °F 54.5 °F 29.7 in NNW 2 mph 2 mph 86% 0.01 in 104 W/m2
10:16 58.8 °F 54.7 °F 29.7 in WNW 2 mph 4 mph 86% 0.01 in 102 W/m2
10:21 58.6 °F 54.5 °F 29.7 in NW 4 mph 7 mph 86% 0.01 in 125 W/m2
10:26 58.6 °F 54.5 °F 29.7 in NNW 0.9 mph 2 mph 86% 0.01 in 128 W/m2
10:31 58.8 °F 55 °F 29.7 in NW 0.9 mph 2 mph 87% 0.01 in 156 W/m2
10:36 58.8 °F 54.7 °F 29.7 in NNW 4 mph 4 mph 86% 0 in 153 W/m2
10:41 59 °F 54.9 °F 29.7 in NNE 0.9 mph 4 mph 86% 0 in 135 W/m2
10:46 59 °F 54.5 °F 29.7 in NNW 2.9 mph 7 mph 85% 0 in 84 W/m2
10:51 58.8 °F 54.3 °F 29.7 in NNE 0.9 mph 3 mph 85% 0 in 90 W/m2
10:56 58.8 °F 54.3 °F 29.7 in NW 2.9 mph 3 mph 85% 0 in 98 W/m2
11:01 58.8 °F 54.3 °F 29.7 in Calm   2 mph 85% 0 in 77 W/m2
11:06 58.6 °F 54.1 °F 29.7 in NW 0.9 mph 7 mph 85% 0 in 37 W/m2
11:11 58.6 °F 54.1 °F 29.7 in NW 2 mph 3 mph 85% 0 in 90 W/m2
11:16 58.5 °F 54 °F 29.7 in NNE 2.9 mph 4 mph 85% 0 in 56 W/m2
11:21 58.5 °F 54 °F 29.7 in NE 2.9 mph 5 mph 85% 0 in 88 W/m2
11:26 58.5 °F 54.3 °F 29.7 in NNE 0.9 mph 4 mph 86% 0 in 135 W/m2
11:32 58.5 °F 54.3 °F 29.7 in NNW 0.9 mph 2 mph 86% 0 in 111 W/m2
11:37 58.5 °F 54 °F 29.7 in NNE 0.9 mph 3 mph 85% 0 in 98 W/m2
Juneau County Weather
Compliments of Weather Underground - 4 mb